Time;durP1;ratioP1;P1;durP2;ratioP2;P2;SDS_P1;SDS_P2;PMS_P1;PMS_P2;Temp;Humidity;BMP_temperature;BMP_pressure;BME280_temperature;BME280_humidity;BME280_pressure;Samples;Min_cycle;Max_cycle;Signal;HPM_P1;HPM_P2
2023/08/17 01:28:33;;;;;;;;;;;;;;;-140.72;34.46;52498.41;6277658;22;20254;-67
2023/08/17 01:31:03;;;;;;;;;;;;;;;-140.72;36.55;52504.50;6276969;22;19986;-67
2023/08/17 01:33:31;;;;;;;;;;;;;;;-140.72;37.98;52504.50;6276615;22;19919;-67
2023/08/17 01:35:57;;;;;;;;;;;;;;;-140.72;36.56;52500.44;6276374;22;19915;-67
2023/08/17 01:38:23;;;;;;;;;;;;;;;-140.72;36.47;52516.66;6275069;22;20331;-67
2023/08/17 01:40:49;;;;;;;;;;;;;;;-140.72;37.16;52528.84;6276467;22;19965;-67
2023/08/17 01:43:16;;;;;;;;;;;;;;;-140.72;39.14;52508.56;6274220;22;19911;-67
2023/08/17 01:45:41;;;;;;;;;;;;;;;-140.72;41.55;52524.78;6275122;22;19915;-67
2023/08/17 01:48:06;;;;;;;;;;;;;;;-140.72;44.64;52528.84;6275309;22;20255;-67
2023/08/17 01:50:31;;;;;;;;;;;;;;;-140.72;47.70;52528.84;6274791;22;19912;-67
2023/08/17 01:52:57;;;;;;;;;;;;;;;-140.72;50.48;52516.66;6275886;22;19915;-67
2023/08/17 01:55:23;;;;;;;;;;;;;;;-140.72;53.45;52528.84;6276375;22;20286;-67
2023/08/17 01:57:48;;;;;;;;;;;;;;;-140.72;55.17;52522.75;6276353;22;19918;-67
2023/08/17 02:00:14;;;;;;;;;;;;;;;-140.72;58.41;52543.03;6274606;22;20310;-67
2023/08/17 02:02:39;;;;;;;;;;;;;;;-140.72;61.15;52514.63;6275446;22;20359;-67
2023/08/17 02:05:04;;;;;;;;;;;;;;;-140.72;64.64;52545.06;6276601;22;20196;-67
2023/08/17 02:07:29;;;;;;;;;;;;;;;-140.72;67.96;52543.03;6274515;22;20235;-67
2023/08/17 02:09:55;;;;;;;;;;;;;;;-140.72;73.14;52526.81;6276414;22;20034;-67
2023/08/17 02:12:20;;;;;;;;;;;;;;;-140.72;78.85;52520.72;6275417;22;19911;-69
2023/08/17 02:14:45;;;;;;;;;;;;;;;-140.72;83.89;52510.59;6275142;22;20405;-68
2023/08/17 02:17:10;;;;;;;;;;;;;;;-140.72;94.05;52561.31;6275671;22;19912;-68
2023/08/17 02:19:36;;;;;;;;;;;;;;;-140.72;99.11;52510.59;6276143;22;19923;-68
2023/08/17 02:22:01;;;;;;;;;;;;;;;-140.72;100.00;52530.88;6275809;22;19920;-68
2023/08/17 02:24:26;;;;;;;;;;;;;;;-140.72;100.00;52498.41;6273953;22;19915;-68
2023/08/17 02:26:51;;;;;;;;;;;;;;;-140.72;100.00;52549.13;6276324;22;19973;-68
2023/08/17 02:29:17;;;;;;;;;;;;;;;-140.72;100.00;52532.91;6276288;22;19911;-68
2023/08/17 02:31:42;;;;;;;;;;;;;;;-140.72;100.00;52553.19;6276159;22;19915;-67
2023/08/17 02:34:09;;;;;;;;;;;;;;;-140.72;100.00;52549.13;6272395;22;19911;-67
2023/08/17 02:36:34;;;;;;;;;;;;;;;-140.72;100.00;52543.03;6300295;22;20289;-67
2023/08/17 02:38:59;;;;;;;;;;;;;;;-140.72;100.00;52561.31;6276367;22;19911;-67
2023/08/17 02:41:25;;;;;;;;;;;;;;;-140.72;100.00;52524.78;6301845;22;19915;-67
2023/08/17 02:43:50;;;;;;;;;;;;;;;-140.72;100.00;52532.91;6302147;22;19965;-67
2023/08/17 02:46:15;;;;;;;;;;;;;;;-140.72;100.00;52567.41;6276808;22;19915;-67
2023/08/17 02:48:40;;;;;;;;;;;;;;;-140.72;100.00;52545.06;6302051;22;20252;-67
2023/08/17 02:51:06;;;;;;;;;;;;;;;-140.72;100.00;52532.91;6278180;22;19961;-67
2023/08/17 02:53:31;;;;;;;;;;;;;;;-140.72;100.00;52551.16;6277467;22;19911;-67
2023/08/17 02:55:56;;;;;;;;;;;;;;;-140.72;100.00;52534.94;6277912;22;19915;-67
2023/08/17 02:58:21;;;;;;;;;;;;;;;-140.72;100.00;52567.41;6277663;22;19911;-67
2023/08/17 03:00:46;;;;;;;;;;;;;;;-140.72;100.00;52539.00;6277436;22;19949;-67
2023/08/17 03:03:12;;;;;;;;;;;;;;;-140.72;100.00;52563.34;6277922;22;19990;-67
2023/08/17 03:05:37;;;;;;;;;;;;;;;-140.72;100.00;52551.16;6277842;22;20314;-68
2023/08/17 03:08:02;;;;;;;;;;;;;;;-140.72;100.00;52557.25;6278101;22;19911;-68
2023/08/17 03:10:27;;;;;;;;;;;;;;;-140.72;100.00;52547.09;6277244;22;19917;-68
2023/08/17 03:12:53;;;;;;;;;;;;;;;-140.72;100.00;52526.81;6302071;22;19915;-68
2023/08/17 03:15:18;;;;;;;;;;;;;;;-140.72;100.00;52581.59;6277923;22;19962;-68
2023/08/17 03:17:43;;;;;;;;;;;;;;;-140.72;100.00;52504.50;6277302;22;20390;-68
2023/08/17 03:20:08;;;;;;;;;;;;;;;-140.72;100.00;52516.66;6278245;22;19986;-68
2023/08/17 03:22:34;;;;;;;;;;;;;;;-140.72;100.00;52541.03;6277353;22;19935;-68
2023/08/17 03:24:59;;;;;;;;;;;;;;;-140.72;100.00;52514.63;6278200;22;20342;-68
2023/08/17 03:27:24;;;;;;;;;;;;;;;-140.72;100.00;52545.06;6302591;22;20243;-68
2023/08/17 03:29:50;;;;;;;;;;;;;;;-140.72;100.00;52565.38;6303549;22;19911;-67
2023/08/17 03:32:15;;;;;;;;;;;;;;;-140.72;100.00;52547.09;6301725;22;20322;-68
2023/08/17 03:34:40;;;;;;;;;;;;;;;-140.72;100.00;52522.75;6277862;22;20290;-68
2023/08/17 03:37:05;;;;;;;;;;;;;;;-140.72;100.00;52534.94;6277173;22;19998;-68
2023/08/17 03:39:31;;;;;;;;;;;;;;;-140.72;100.00;52549.13;6302115;22;19918;-68
2023/08/17 03:41:56;;;;;;;;;;;;;;;-140.72;100.00;52551.16;6276921;22;19927;-68
2023/08/17 03:44:21;;;;;;;;;;;;;;;-140.72;100.00;52563.34;6277770;22;20003;-68
2023/08/17 03:46:46;;;;;;;;;;;;;;;-140.72;100.00;52549.13;6276544;22;19911;-68
2023/08/17 03:49:12;;;;;;;;;;;;;;;-140.72;100.00;52577.53;6277613;22;19915;-68
2023/08/17 03:51:37;;;;;;;;;;;;;;;-140.72;100.00;52553.19;6276922;22;19911;-68
2023/08/17 03:54:02;;;;;;;;;;;;;;;-140.72;100.00;52569.44;6277323;22;19911;-68
2023/08/17 03:56:27;;;;;;;;;;;;;;;-140.72;100.00;52526.81;6277071;22;19925;-68
2023/08/17 03:58:53;;;;;;;;;;;;;;;-140.72;100.00;52549.13;6277280;22;19994;-67
2023/08/17 04:01:18;;;;;;;;;;;;;;;-140.72;100.00;52577.53;6276759;22;19949;-68
2023/08/17 04:03:43;;;;;;;;;;;;;;;-140.72;100.00;52536.97;6277607;22;19911;-68
2023/08/17 04:06:10;;;;;;;;;;;;;;;-140.72;100.00;52545.06;6276861;22;19915;-68
2023/08/17 04:08:36;;;;;;;;;;;;;;;-140.72;100.00;52549.13;6277525;22;20320;-68
2023/08/17 04:11:01;;;;;;;;;;;;;;;-140.72;100.00;52557.25;6276300;22;19911;-68
2023/08/17 04:13:27;;;;;;;;;;;;;;;-140.72;100.00;52530.88;6277291;22;19969;-68
2023/08/17 04:15:52;;;;;;;;;;;;;;;-140.72;100.00;52536.97;6276800;22;19922;-68
2023/08/17 04:18:17;;;;;;;;;;;;;;;-140.72;100.00;52547.09;6275567;22;19919;-68
2023/08/17 04:20:42;;;;;;;;;;;;;;;-140.72;100.00;52545.06;6300686;22;20347;-68
2023/08/17 04:23:08;;;;;;;;;;;;;;;-140.72;100.00;52549.13;6301727;22;20328;-67
2023/08/17 04:25:33;;;;;;;;;;;;;;;-140.72;100.00;52593.78;6277246;22;19918;-68
2023/08/17 04:27:58;;;;;;;;;;;;;;;-140.72;100.00;52530.88;6277460;22;19919;-68
2023/08/17 04:30:24;;;;;;;;;;;;;;;-140.72;100.00;52557.25;6276833;22;19911;-67
2023/08/17 04:32:52;;;;;;;;;;;;;;;-140.72;99.59;52547.09;6276879;22;19994;-68
2023/08/17 04:35:17;;;;;;;;;;;;;;;-140.72;97.55;52557.25;6275357;22;20315;-68
2023/08/17 04:37:42;;;;;;;;;;;;;;;-140.72;97.81;52508.56;6276831;22;19942;-67
2023/08/17 04:40:08;;;;;;;;;;;;;;;-140.72;95.77;52545.06;6276389;22;19982;-67
2023/08/17 04:42:33;;;;;;;;;;;;;;;-140.72;92.80;52532.91;6277413;22;20009;-68
2023/08/17 04:44:58;;;;;;;;;;;;;;;-140.72;91.55;52522.75;6276258;22;19981;-67
2023/08/17 04:47:24;;;;;;;;;;;;;;;-140.72;89.40;52557.25;6275243;22;19911;-68
2023/08/17 04:49:49;;;;;;;;;;;;;;;-140.72;85.38;52539.00;6276011;22;19915;-68
2023/08/17 04:52:14;;;;;;;;;;;;;;;-140.72;85.47;52545.06;6276870;22;19926;-67
2023/08/17 04:54:40;;;;;;;;;;;;;;;-140.72;83.11;52547.09;6276418;22;19961;-68
2023/08/17 04:57:05;;;;;;;;;;;;;;;-140.72;82.17;52555.22;6275977;22;19975;-68
2023/08/17 04:59:30;;;;;;;;;;;;;;;-140.72;80.36;52526.81;6275977;22;19990;-68
2023/08/17 05:01:55;;;;;;;;;;;;;;;-140.72;78.63;52516.66;6276732;22;19922;-68
2023/08/17 05:04:21;;;;;;;;;;;;;;;-140.72;76.98;52532.91;6276254;22;19912;-68
2023/08/17 05:06:46;;;;;;;;;;;;;;;-140.72;73.37;52530.88;6276925;22;19969;-68
2023/08/17 05:09:11;;;;;;;;;;;;;;;-140.72;71.99;52583.63;6275844;22;19911;-68
2023/08/17 05:11:36;;;;;;;;;;;;;;;-140.72;71.69;52545.06;6276996;22;19918;-67
2023/08/17 05:14:02;;;;;;;;;;;;;;;-140.72;70.74;52539.00;6275077;22;20225;-67
2023/08/17 05:16:27;;;;;;;;;;;;;;;-140.72;65.41;52559.28;6300688;22;19938;-68
2023/08/17 05:18:52;;;;;;;;;;;;;;;-140.72;62.97;52520.72;6275952;22;20033;-67
2023/08/17 05:21:17;;;;;;;;;;;;;;;-140.72;60.62;52553.19;6299672;22;19972;-67
2023/08/17 05:23:43;;;;;;;;;;;;;;;-140.72;57.47;52549.13;6300911;22;20343;-68
2023/08/17 05:26:08;;;;;;;;;;;;;;;-140.72;55.72;52563.34;6277119;22;19911;-68
2023/08/17 05:28:33;;;;;;;;;;;;;;;-140.72;50.25;52518.69;6277321;22;19954;-67
2023/08/17 05:31:06;;;;;;;;;;;;;;;-140.72;45.17;52518.69;6277949;22;20009;-67
2023/08/17 05:33:31;;;;;;;;;;;;;;;-140.72;43.02;52545.06;6276101;22;19922;-68
2023/08/17 05:35:56;;;;;;;;;;;;;;;-140.72;40.51;52539.00;6275938;22;19916;-68
2023/08/17 05:38:21;;;;;;;;;;;;;;;-140.72;34.56;52504.50;6276173;22;20344;-68
2023/08/17 05:40:47;;;;;;;;;;;;;;;-140.72;34.82;52512.59;6275701;22;19997;-68
2023/08/17 05:43:12;;;;;;;;;;;;;;;-140.72;34.69;52480.16;6274240;22;19911;-68
2023/08/17 05:45:37;;;;;;;;;;;;;;;-140.72;32.28;52516.66;6299263;22;19965;-68
2023/08/17 05:48:03;;;;;;;;;;;;;;;-140.72;30.25;52510.59;6276246;22;20040;-69
2023/08/17 05:50:29;;;;;;;;;;;;;;;-140.72;29.17;52532.91;6275042;22;19946;-67
2023/08/17 05:52:54;;;;;;;;;;;;;;;-140.72;29.37;52539.00;6276220;22;19918;-71
2023/08/17 05:55:19;;;;;;;;;;;;;;;-140.72;26.99;52506.53;6275852;22;19915;-71
2023/08/17 05:57:45;;;;;;;;;;;;;;;-140.72;24.68;52526.81;6276210;22;19958;-72
2023/08/17 06:00:12;;;;;;;;;;;;;;;-140.72;23.28;52536.97;6299816;22;19915;-72
2023/08/17 06:02:37;;;;;;;;;;;;;;;-140.72;21.70;52506.53;6276199;22;19911;-72
2023/08/17 06:05:03;;;;;;;;;;;;;;;-140.72;24.83;52520.72;6275766;22;19918;-72
2023/08/17 06:07:28;;;;;;;;;;;;;;;-140.72;23.60;52510.59;6276212;22;19911;-72
2023/08/17 06:09:53;;;;;;;;;;;;;;;-140.72;21.99;52506.53;6275363;22;19922;-73
2023/08/17 06:12:18;;;;;;;;;;;;;;;-140.72;22.39;52506.53;6276378;22;19911;-72
2023/08/17 06:14:44;;;;;;;;;;;;;;;-140.72;20.00;52474.06;6276308;22;19990;-74
2023/08/17 06:17:09;;;;;;;;;;;;;;;-140.72;18.67;52482.16;6276318;22;19942;-72
2023/08/17 06:19:34;;;;;;;;;;;;;;;-140.72;17.35;52539.00;6275953;22;19918;-73
2023/08/17 06:21:59;;;;;;;;;;;;;;;-140.72;15.53;52478.13;6275766;22;19918;-73
2023/08/17 06:24:25;;;;;;;;;;;;;;;-140.72;11.84;52512.59;6299691;22;19915;-73
2023/08/17 06:26:50;;;;;;;;;;;;;;;-140.72;8.61;52496.38;6275862;22;19990;-72
2023/08/17 06:29:15;;;;;;;;;;;;;;;-140.72;9.86;52536.97;6275570;22;19919;-72
2023/08/17 06:31:41;;;;;;;;;;;;;;;-140.72;6.73;52510.59;6279303;22;19911;-72
2023/08/17 06:34:06;;;;;;;;;;;;;;;-140.72;3.03;52510.59;6277286;22;20298;-73
2023/08/17 06:36:32;;;;;;;;;;;;;;;-140.72;0.00;52508.56;6275689;22;19918;-72
2023/08/17 06:38:57;;;;;;;;;;;;;;;-140.72;0.00;52490.28;6300279;22;19911;-71
2023/08/17 06:41:23;;;;;;;;;;;;;;;-140.72;0.00;52500.44;6275823;22;20328;-72
2023/08/17 06:43:49;;;;;;;;;;;;;;;-140.72;0.00;52516.66;6276538;22;19934;-72
2023/08/17 06:46:14;;;;;;;;;;;;;;;-140.72;0.00;52474.06;6300607;22;19990;-74
2023/08/17 06:48:39;;;;;;;;;;;;;;;-140.72;0.00;52467.97;6273203;22;19911;-73
2023/08/17 06:51:05;;;;;;;;;;;;;;;-140.72;0.00;52461.88;6276263;22;19911;-73
2023/08/17 06:53:30;;;;;;;;;;;;;;;-140.72;0.00;52486.22;6273284;22;19911;-73
2023/08/17 06:55:55;;;;;;;;;;;;;;;-140.72;0.00;52455.78;6274579;22;20382;-73
2023/08/17 06:58:20;;;;;;;;;;;;;;;-140.72;0.00;52461.88;6275848;22;19916;-73
2023/08/17 07:00:46;;;;;;;;;;;;;;;-140.72;0.00;52445.66;6275823;22;20258;-72
2023/08/17 07:03:11;;;;;;;;;;;;;;;-140.72;0.00;52425.34;6276944;22;20539;-72
2023/08/17 07:05:36;;;;;;;;;;;;;;;-140.72;0.00;52423.31;6277699;22;19930;-73
2023/08/17 07:08:01;;;;;;;;;;;;;;;-140.72;0.00;52455.78;6301276;22;19915;-75
2023/08/17 07:10:27;;;;;;;;;;;;;;;-140.72;0.00;52417.25;6277228;22;19962;-74
2023/08/17 07:12:53;;;;;;;;;;;;;;;-140.72;0.00;52435.50;6275318;22;19915;-72
2023/08/17 07:15:18;;;;;;;;;;;;;;;-140.72;0.00;52407.09;6277767;22;20381;-74
2023/08/17 07:17:43;;;;;;;;;;;;;;;-140.72;0.00;52411.16;6274460;22;19943;-74
2023/08/17 07:20:09;;;;;;;;;;;;;;;-140.72;0.00;52427.38;6278091;22;19911;-74
2023/08/17 07:22:36;;;;;;;;;;;;;;;-140.72;0.00;52388.84;6279142;22;20004;-74
2023/08/17 07:25:01;;;;;;;;;;;;;;;-140.72;0.00;52429.41;6280894;22;19915;-75
2023/08/17 07:27:26;;;;;;;;;;;;;;;-140.72;0.00;52394.91;6278749;22;19942;-74
2023/08/17 07:29:52;;;;;;;;;;;;;;;-140.72;0.00;52413.19;6302226;22;20332;-72
2023/08/17 07:32:17;;;;;;;;;;;;;;;-140.72;0.00;52388.84;6279389;22;19926;-73
2023/08/17 07:34:42;;;;;;;;;;;;;;;-140.72;0.00;52419.28;6276690;22;19961;-74
2023/08/17 07:37:08;;;;;;;;;;;;;;;-140.72;0.00;52401.00;6274511;22;19946;-73
2023/08/17 07:39:33;;;;;;;;;;;;;;;-140.72;0.00;52380.72;6276033;22;19911;-70
2023/08/17 07:41:58;;;;;;;;;;;;;;;-140.72;0.00;52398.97;6277653;22;19965;-71
2023/08/17 07:44:23;;;;;;;;;;;;;;;-140.72;0.00;52396.94;6275594;22;19918;-72
2023/08/17 07:46:49;;;;;;;;;;;;;;;-140.72;0.00;52372.59;6274889;22;19986;-71
2023/08/17 07:49:14;;;;;;;;;;;;;;;-140.72;0.00;52394.91;6276846;22;20278;-74
2023/08/17 07:51:39;;;;;;;;;;;;;;;-140.72;0.00;52398.97;6275578;22;19950;-71
2023/08/17 07:54:04;;;;;;;;;;;;;;;-140.72;0.00;52382.75;6277214;22;19916;-71
2023/08/17 07:56:30;;;;;;;;;;;;;;;-140.72;0.00;52433.47;6274968;22;20328;-67
2023/08/17 07:58:55;;;;;;;;;;;;;;;-140.72;0.00;52401.00;6276630;22;19950;-68
2023/08/17 08:01:20;;;;;;;;;;;;;;;-140.72;0.00;52394.91;6277570;22;19911;-74
2023/08/17 08:03:47;;;;;;;;;;;;;;;-140.72;0.00;52374.63;6275605;22;20383;-74
2023/08/17 08:06:12;;;;;;;;;;;;;;;-140.72;0.00;52356.38;6278703;22;19918;-75
2023/08/17 08:08:38;;;;;;;;;;;;;;;-140.72;0.00;52415.22;6278703;22;19911;-78
2023/08/17 08:11:04;;;;;;;;;;;;;;;-140.72;0.00;52386.81;6275891;22;19946;-76
2023/08/17 08:13:29;;;;;;;;;;;;;;;-140.72;0.00;52350.28;6276131;22;19911;-76
2023/08/17 08:15:55;;;;;;;;;;;;;;;-140.72;0.00;52382.75;6249603;22;19916;-76
2023/08/17 08:18:20;;;;;;;;;;;;;;;-140.72;0.00;52364.47;6276683;22;19921;-76
2023/08/17 08:20:45;;;;;;;;;;;;;;;-140.72;0.00;52360.44;6276802;22;19915;-76
2023/08/17 08:23:11;;;;;;;;;;;;;;;-140.72;0.00;52388.84;6277615;22;19915;-73
2023/08/17 08:25:36;;;;;;;;;;;;;;;-140.72;0.00;52348.25;6276889;22;19919;-70
2023/08/17 08:28:01;;;;;;;;;;;;;;;-140.72;0.00;52344.19;6276758;22;19919;-70
2023/08/17 08:30:27;;;;;;;;;;;;;;;-140.72;0.00;52354.34;6277832;22;19915;-70
2023/08/17 08:32:52;;;;;;;;;;;;;;;-140.72;0.00;52350.28;6277786;22;19916;-71
2023/08/17 08:35:17;;;;;;;;;;;;;;;-140.72;0.00;52358.41;6276939;22;20324;-69
2023/08/17 08:37:42;;;;;;;;;;;;;;;-140.72;0.00;52368.53;6276761;22;19911;-70
2023/08/17 08:40:11;;;;;;;;;;;;;;;-140.72;0.00;52358.41;6300413;22;19967;-70
2023/08/17 08:42:36;;;;;;;;;;;;;;;-140.72;0.00;52382.75;6276738;22;19911;-68
2023/08/17 08:45:01;;;;;;;;;;;;;;;-140.72;0.00;52342.16;6275895;22;20343;-69
2023/08/17 08:47:28;;;;;;;;;;;;;;;-140.72;0.00;52330.00;6300774;22;20277;-69
2023/08/17 08:50:03;;;;;;;;;;;;;;;-140.72;0.00;52364.47;6276896;22;19954;-69
2023/08/17 08:52:35;;;;;;;;;;;;;;;-140.72;0.00;52297.53;6277209;22;19911;-70
2023/08/17 08:55:27;;;;;;;;;;;;;;;-140.72;0.00;52334.03;6277477;22;19911;-70
2023/08/17 08:57:53;;;;;;;;;;;;;;;-140.72;0.00;52338.09;6272367;22;20201;-69
2023/08/17 09:00:18;;;;;;;;;;;;;;;-140.72;0.00;52269.13;6275194;22;19949;-72
2023/08/17 09:02:44;;;;;;;;;;;;;;;-140.72;0.00;52287.38;6275630;22;19911;-71
2023/08/17 09:05:10;;;;;;;;;;;;;;;-140.72;0.00;52258.97;6276629;22;19964;-68
2023/08/17 09:07:37;;;;;;;;;;;;;;;-140.72;0.00;52250.84;6274886;22;19911;-70
2023/08/17 09:10:03;;;;;;;;;;;;;;;-140.72;0.00;52250.84;6276713;22;19922;-69
2023/08/17 09:12:29;;;;;;;;;;;;;;;-140.72;0.00;52185.94;6301961;22;19911;-70
2023/08/17 09:14:56;;;;;;;;;;;;;;;-140.72;0.00;52200.13;6275602;22;19961;-68
2023/08/17 09:17:25;;;;;;;;;;;;;;;-140.72;0.00;52183.91;6277228;22;19933;-69
2023/08/17 09:19:50;;;;;;;;;;;;;;;-140.72;0.00;52177.81;6275654;22;19926;-68
2023/08/17 09:22:36;;;;;;;;;;;;;;;-140.72;0.00;52155.50;6275921;22;19915;-67
2023/08/17 09:25:01;;;;;;;;;;;;;;;-140.72;0.00;52151.44;6276984;22;20257;-69
2023/08/17 09:27:26;;;;;;;;;;;;;;;-140.72;0.00;52161.56;6275435;22;19946;-69
2023/08/17 09:29:51;;;;;;;;;;;;;;;-140.72;0.00;52108.81;6276469;22;19912;-70
2023/08/17 09:32:16;;;;;;;;;;;;;;;-140.72;0.00;52098.69;6276618;22;19911;-69
2023/08/17 09:34:43;;;;;;;;;;;;;;;-140.72;0.00;52131.16;6276906;22;19965;-69
2023/08/17 09:37:08;;;;;;;;;;;;;;;-140.72;0.00;52189.97;6277223;22;19994;-69
2023/08/17 09:39:33;;;;;;;;;;;;;;;-140.72;0.00;52198.09;6276811;22;19947;-70
2023/08/17 09:42:02;;;;;;;;;;;;;;;-140.72;0.00;52216.34;6276506;22;19911;-71
2023/08/17 09:44:27;;;;;;;;;;;;;;;-140.72;0.00;52187.97;6275093;22;20014;-70
2023/08/17 09:46:55;;;;;;;;;;;;;;;-140.72;0.00;52131.16;6275216;22;19911;-70
2023/08/17 09:49:22;;;;;;;;;;;;;;;-140.72;0.00;52137.22;6300689;22;20324;-69
2023/08/17 09:51:48;;;;;;;;;;;;;;;-140.72;0.00;52092.59;6277342;22;19911;-70
2023/08/17 09:54:31;;;;;;;;;;;;;;;-140.72;0.00;52078.38;6277371;22;19918;-69
2023/08/17 09:57:00;;;;;;;;;;;;;;;-140.72;0.00;52056.06;6277236;22;19994;-69
2023/08/17 09:59:25;;;;;;;;;;;;;;;-140.72;0.00;52066.22;6274753;22;19911;-70
2023/08/17 10:01:51;;;;;;;;;;;;;;;-140.72;0.00;52163.59;6276509;22;20221;-73
2023/08/17 10:04:23;;;;;;;;;;;;;;;-140.72;0.00;52092.59;6275623;22;19915;-69
2023/08/17 10:06:52;;;;;;;;;;;;;;;-140.72;0.00;52066.22;6276450;22;20332;-76
2023/08/17 10:09:21;;;;;;;;;;;;;;;-140.72;0.00;52029.69;6274835;22;19915;-75
2023/08/17 10:11:48;;;;;;;;;;;;;;;-140.72;0.00;51985.06;6276889;22;19916;-75
2023/08/17 10:14:17;;;;;;;;;;;;;;;-140.72;0.00;51966.81;6275355;22;19911;-74
2023/08/17 10:16:46;;;;;;;;;;;;;;;-140.72;0.00;52068.25;6275450;22;19912;-75
2023/08/17 10:19:14;;;;;;;;;;;;;;;-140.72;0.00;52086.50;6276340;22;19911;-74
2023/08/17 10:22:01;;;;;;;;;;;;;;;-140.72;0.00;52131.16;6277032;22;19911;-78
2023/08/17 10:24:27;;;;;;;;;;;;;;;-140.72;0.00;52155.50;6274877;22;19919;-75
2023/08/17 10:26:52;;;;;;;;;;;;;;;-140.72;0.00;52187.97;6274207;22;19912;-75
2023/08/17 10:29:18;;;;;;;;;;;;;;;-140.72;0.00;52131.16;6275422;22;19912;-75
2023/08/17 10:31:44;;;;;;;;;;;;;;;-140.72;0.00;52037.81;6278953;22;19918;-75
2023/08/17 10:34:09;;;;;;;;;;;;;;;-140.72;0.00;52062.16;6273609;22;19911;-76
2023/08/17 10:36:35;;;;;;;;;;;;;;;-140.72;0.00;52123.03;6276508;22;20320;-75
2023/08/17 10:39:19;;;;;;;;;;;;;;;-140.72;0.00;52054.03;6274224;22;19911;-78
2023/08/17 10:41:46;;;;;;;;;;;;;;;-140.72;0.00;52116.94;6274607;22;20328;-75
2023/08/17 10:44:12;;;;;;;;;;;;;;;-140.72;0.00;52037.81;6275186;22;20315;-76
2023/08/17 10:46:40;;;;;;;;;;;;;;;-140.72;0.00;52049.97;6276753;22;19911;-76
2023/08/17 10:49:06;;;;;;;;;;;;;;;-140.72;0.00;52054.03;6275690;22;19911;-76
2023/08/17 10:51:31;;;;;;;;;;;;;;;-140.72;0.00;52001.28;6277208;22;20350;-75
2023/08/17 10:53:58;;;;;;;;;;;;;;;-140.72;0.00;52015.50;6276125;22;19922;-76
2023/08/17 10:56:30;;;;;;;;;;;;;;;-140.72;0.00;52011.44;6280117;22;19911;-78
2023/08/17 10:59:02;;;;;;;;;;;;;;;-140.72;0.00;52039.84;6276335;22;19919;-76
2023/08/17 11:01:34;;;;;;;;;;;;;;;-140.72;0.00;52052.00;6275732;22;19915;-76
2023/08/17 11:04:11;;;;;;;;;;;;;;;-140.72;0.00;52066.22;6278572;22;19912;-76
2023/08/17 11:07:00;;;;;;;;;;;;;;;-140.72;0.00;52118.97;6277994;22;19935;-79
2023/08/17 11:09:25;;;;;;;;;;;;;;;-140.72;0.00;52118.97;6285746;22;19911;-79
2023/08/17 11:11:52;;;;;;;;;;;;;;;-140.72;0.00;52149.41;6279703;22;20229;-79
2023/08/17 11:14:17;;;;;;;;;;;;;;;-140.72;0.00;52151.44;6277386;22;19911;-73
2023/08/17 11:16:43;;;;;;;;;;;;;;;-140.72;0.00;52187.97;6279829;22;19919;-76
2023/08/17 11:19:08;;;;;;;;;;;;;;;-140.72;0.00;52212.31;6279769;22;19912;-75
2023/08/17 11:21:33;;;;;;;;;;;;;;;-140.72;0.00;52159.56;6277721;22;19911;-75
2023/08/17 11:23:59;;;;;;;;;;;;;;;-140.72;0.00;52220.41;6278468;22;19911;-74
2023/08/17 11:26:24;;;;;;;;;;;;;;;-140.72;0.00;52066.22;6277640;22;20312;-74
2023/08/17 11:28:50;;;;;;;;;;;;;;;-140.72;0.00;52135.19;6277658;22;19986;-74
2023/08/17 11:31:15;;;;;;;;;;;;;;;-140.72;0.00;52098.69;6279129;22;20217;-74
2023/08/17 11:33:40;;;;;;;;;;;;;;;-140.72;0.00;52118.97;6276623;22;20006;-74
2023/08/17 11:36:06;;;;;;;;;;;;;;;-140.72;0.00;52173.75;6276717;22;19941;-74
2023/08/17 11:38:33;;;;;;;;;;;;;;;-140.72;0.00;52163.59;6275920;22;19911;-74
2023/08/17 11:40:59;;;;;;;;;;;;;;;-140.72;0.00;52110.84;6276159;22;19945;-75
2023/08/17 11:43:25;;;;;;;;;;;;;;;-140.72;0.00;52070.28;6275900;22;19915;-74
2023/08/17 11:45:51;;;;;;;;;;;;;;;-140.72;0.00;52078.38;6300691;22;19911;-74
2023/08/17 11:48:18;;;;;;;;;;;;;;;-140.72;0.00;52017.53;6276165;22;20355;-74
2023/08/17 11:50:43;;;;;;;;;;;;;;;-140.72;0.00;51997.22;6276552;22;19934;-74
2023/08/17 11:53:08;;;;;;;;;;;;;;;-140.72;0.00;52072.31;6276100;22;20332;-78
2023/08/17 11:55:34;;;;;;;;;;;;;;;-140.72;0.00;52062.16;6276592;22;19911;-74
2023/08/17 11:57:59;;;;;;;;;;;;;;;-140.72;0.00;52082.44;6275919;22;19911;-73
2023/08/17 12:00:25;;;;;;;;;;;;;;;-140.72;0.00;52058.09;6275606;22;19947;-76
2023/08/17 12:02:51;;;;;;;;;;;;;;;-140.72;0.00;52102.75;6278718;22;19939;-73
2023/08/17 12:05:23;;;;;;;;;;;;;;;-140.72;0.00;52078.38;6278716;22;20066;-74
2023/08/17 12:07:49;;;;;;;;;;;;;;;-140.72;0.00;52029.69;6275103;22;19915;-74
2023/08/17 12:10:15;;;;;;;;;;;;;;;-140.72;0.00;52017.53;6277609;22;19912;-73
2023/08/17 12:12:40;;;;;;;;;;;;;;;-140.72;0.00;52064.19;6275376;22;20427;-74
2023/08/17 12:15:05;;;;;;;;;;;;;;;-140.72;0.00;52098.69;6277228;22;19915;-73
2023/08/17 12:17:31;;;;;;;;;;;;;;;-140.72;0.00;52112.88;6275557;22;19915;-74
2023/08/17 12:19:58;;;;;;;;;;;;;;;-140.72;0.00;52167.66;6301607;22;19921;-73
2023/08/17 12:22:24;;;;;;;;;;;;;;;-140.72;0.00;52114.91;6276255;22;19918;-73
2023/08/17 12:24:49;;;;;;;;;;;;;;;-140.72;0.00;52125.06;6277628;22;19938;-74
2023/08/17 12:27:15;;;;;;;;;;;;;;;-140.72;0.00;52114.91;6277265;22;19916;-73
2023/08/17 12:29:48;;;;;;;;;;;;;;;-140.72;0.00;52131.16;6280624;22;19915;-72
2023/08/17 12:32:13;;;;;;;;;;;;;;;-140.72;0.00;52167.66;6275572;22;19912;-74
2023/08/17 12:34:39;;;;;;;;;;;;;;;-140.72;0.00;52159.56;6275458;22;19918;-72
2023/08/17 12:37:04;;;;;;;;;;;;;;;-140.72;0.00;52149.41;6275201;22;20221;-73
2023/08/17 12:39:29;;;;;;;;;;;;;;;-140.72;0.00;52139.25;6277296;22;20278;-73
2023/08/17 12:41:54;;;;;;;;;;;;;;;-140.72;0.00;52135.19;6275871;22;19950;-73
2023/08/17 12:44:19;;;;;;;;;;;;;;;-140.72;0.00;52143.31;6276153;22;19911;-73
2023/08/17 12:46:45;;;;;;;;;;;;;;;-140.72;0.00;52149.41;6275435;22;19917;-73
2023/08/17 12:49:10;;;;;;;;;;;;;;;-140.72;0.00;52189.97;6275785;22;19949;-73
2023/08/17 12:51:35;;;;;;;;;;;;;;;-140.72;0.00;52189.97;6301418;22;19915;-73
2023/08/17 12:54:01;;;;;;;;;;;;;;;-140.72;0.00;52177.81;6275992;22;19920;-73
2023/08/17 12:56:26;;;;;;;;;;;;;;;-140.72;0.00;52212.31;6275337;22;20001;-73
2023/08/17 12:58:51;;;;;;;;;;;;;;;-140.72;0.00;52222.44;6275101;22;19968;-73
2023/08/17 13:01:18;;;;;;;;;;;;;;;-140.72;0.00;52196.06;6274245;22;19911;-73
2023/08/17 13:03:43;;;;;;;;;;;;;;;-140.72;0.00;52261.00;6277411;22;20028;-73
2023/08/17 13:06:09;;;;;;;;;;;;;;;-140.72;0.00;52250.84;6300611;22;19950;-73
2023/08/17 13:08:34;;;;;;;;;;;;;;;-140.72;0.00;52248.81;6276812;22;19945;-74
2023/08/17 13:10:59;;;;;;;;;;;;;;;-140.72;0.00;52250.84;6276513;22;19917;-73
2023/08/17 13:13:25;;;;;;;;;;;;;;;-140.72;0.00;52248.81;6276926;22;20002;-73
2023/08/17 13:15:50;;;;;;;;;;;;;;;-140.72;0.00;52279.25;6276489;22;19911;-73
2023/08/17 13:18:15;;;;;;;;;;;;;;;-140.72;0.00;52275.19;6276858;22;19922;-73
2023/08/17 13:20:41;;;;;;;;;;;;;;;-140.72;0.00;52275.19;6274982;22;19934;-73
2023/08/17 13:23:06;;;;;;;;;;;;;;;-140.72;0.00;52281.28;6275703;22;20359;-73
2023/08/17 13:25:31;;;;;;;;;;;;;;;-140.72;0.00;52248.81;6277045;22;19918;-75
2023/08/17 13:27:56;;;;;;;;;;;;;;;-140.72;0.00;52327.97;6277246;22;20320;-76
2023/08/17 13:30:22;;;;;;;;;;;;;;;-140.72;0.00;52279.25;6276127;22;19965;-71
2023/08/17 13:32:47;;;;;;;;;;;;;;;-140.72;0.00;52293.47;6276851;22;20002;-72
2023/08/17 13:35:13;;;;;;;;;;;;;;;-140.72;0.00;52283.31;6275065;22;19911;-68
2023/08/17 13:37:40;;;;;;;;;;;;;;;-140.72;0.00;52269.13;6275274;22;19915;-68
2023/08/17 13:40:05;;;;;;;;;;;;;;;-140.72;0.00;52291.44;6275986;22;19934;-69
2023/08/17 13:42:30;;;;;;;;;;;;;;;-140.72;0.00;52244.78;6276479;22;19927;-68
2023/08/17 13:44:55;;;;;;;;;;;;;;;-140.72;0.00;52244.78;6276317;22;19977;-68
2023/08/17 13:47:21;;;;;;;;;;;;;;;-140.72;0.00;52232.59;6275797;22;20328;-69
2023/08/17 13:49:46;;;;;;;;;;;;;;;-140.72;0.00;52240.72;6275591;22;20354;-67
2023/08/17 13:52:16;;;;;;;;;;;;;;;-140.72;0.00;52242.75;6277371;22;19996;-68